sensor_id;sensor_type;location;lat;lon;timestamp;P1;durP1;ratioP1;P2;durP2;ratioP2
14272;SDS011;7220;49.450;11.052;2023-04-24T00:01:41;4.93;;;3.47;;
14272;SDS011;7220;49.450;11.052;2023-04-24T00:05:42;6.68;;;3.85;;
14272;SDS011;7220;49.450;11.052;2023-04-24T00:09:43;8.00;;;4.20;;
14272;SDS011;7220;49.450;11.052;2023-04-24T00:13:43;4.32;;;3.92;;
14272;SDS011;7220;49.450;11.052;2023-04-24T00:17:43;6.38;;;3.67;;
14272;SDS011;7220;49.450;11.052;2023-04-24T00:21:44;4.53;;;3.38;;
14272;SDS011;7220;49.450;11.052;2023-04-24T00:25:44;5.40;;;3.28;;
14272;SDS011;7220;49.450;11.052;2023-04-24T00:29:44;4.10;;;3.25;;
14272;SDS011;7220;49.450;11.052;2023-04-24T00:33:45;4.05;;;3.03;;
14272;SDS011;7220;49.450;11.052;2023-04-24T00:37:45;4.25;;;2.83;;
14272;SDS011;7220;49.450;11.052;2023-04-24T00:41:46;3.15;;;2.78;;
14272;SDS011;7220;49.450;11.052;2023-04-24T00:45:47;3.00;;;2.45;;
14272;SDS011;7220;49.450;11.052;2023-04-24T00:49:47;3.28;;;2.53;;
14272;SDS011;7220;49.450;11.052;2023-04-24T00:53:47;4.50;;;2.80;;
14272;SDS011;7220;49.450;11.052;2023-04-24T00:57:48;2.53;;;2.25;;
14272;SDS011;7220;49.450;11.052;2023-04-24T01:01:48;2.95;;;2.30;;
14272;SDS011;7220;49.450;11.052;2023-04-24T01:05:49;3.67;;;2.75;;
14272;SDS011;7220;49.450;11.052;2023-04-24T01:09:49;4.35;;;2.38;;
14272;SDS011;7220;49.450;11.052;2023-04-24T01:13:52;1.90;;;1.77;;
14272;SDS011;7220;49.450;11.052;2023-04-24T01:17:52;2.80;;;2.08;;
14272;SDS011;7220;49.450;11.052;2023-04-24T01:21:53;2.65;;;1.80;;
14272;SDS011;7220;49.450;11.052;2023-04-24T01:25:54;2.30;;;2.10;;
14272;SDS011;7220;49.450;11.052;2023-04-24T01:29:54;3.65;;;1.83;;
14272;SDS011;7220;49.450;11.052;2023-04-24T01:33:55;2.38;;;1.98;;
14272;SDS011;7220;49.450;11.052;2023-04-24T01:37:56;2.05;;;1.85;;
14272;SDS011;7220;49.450;11.052;2023-04-24T01:41:56;3.10;;;1.70;;
14272;SDS011;7220;49.450;11.052;2023-04-24T01:45:57;3.15;;;1.98;;
14272;SDS011;7220;49.450;11.052;2023-04-24T01:49:57;1.90;;;1.77;;
14272;SDS011;7220;49.450;11.052;2023-04-24T01:53:58;2.53;;;2.08;;
14272;SDS011;7220;49.450;11.052;2023-04-24T01:57:58;1.75;;;1.65;;
14272;SDS011;7220;49.450;11.052;2023-04-24T02:01:59;1.63;;;1.52;;
14272;SDS011;7220;49.450;11.052;2023-04-24T02:06:00;2.65;;;1.90;;
14272;SDS011;7220;49.450;11.052;2023-04-24T02:10:00;1.98;;;1.70;;
14272;SDS011;7220;49.450;11.052;2023-04-24T02:14:00;1.60;;;1.45;;
14272;SDS011;7220;49.450;11.052;2023-04-24T02:18:01;1.90;;;1.70;;
14272;SDS011;7220;49.450;11.052;2023-04-24T02:22:01;1.67;;;1.58;;
14272;SDS011;7220;49.450;11.052;2023-04-24T02:26:02;1.60;;;1.50;;
14272;SDS011;7220;49.450;11.052;2023-04-24T02:30:02;1.70;;;1.60;;
14272;SDS011;7220;49.450;11.052;2023-04-24T02:34:03;3.17;;;1.88;;
14272;SDS011;7220;49.450;11.052;2023-04-24T02:38:03;3.63;;;2.00;;
14272;SDS011;7220;49.450;11.052;2023-04-24T02:42:04;2.35;;;1.73;;
14272;SDS011;7220;49.450;11.052;2023-04-24T02:46:05;1.80;;;1.70;;
14272;SDS011;7220;49.450;11.052;2023-04-24T02:50:05;3.67;;;1.97;;
14272;SDS011;7220;49.450;11.052;2023-04-24T02:54:09;1.80;;;1.50;;
14272;SDS011;7220;49.450;11.052;2023-04-24T02:58:10;1.77;;;1.60;;
14272;SDS011;7220;49.450;11.052;2023-04-24T03:02:12;4.07;;;1.90;;
14272;SDS011;7220;49.450;11.052;2023-04-24T03:06:13;2.17;;;1.70;;
14272;SDS011;7220;49.450;11.052;2023-04-24T03:10:13;2.25;;;1.90;;
14272;SDS011;7220;49.450;11.052;2023-04-24T03:14:13;2.22;;;2.03;;
14272;SDS011;7220;49.450;11.052;2023-04-24T03:18:14;1.70;;;1.58;;
14272;SDS011;7220;49.450;11.052;2023-04-24T03:22:14;2.22;;;1.90;;
14272;SDS011;7220;49.450;11.052;2023-04-24T03:26:15;2.28;;;2.08;;
14272;SDS011;7220;49.450;11.052;2023-04-24T03:30:15;2.25;;;2.03;;
14272;SDS011;7220;49.450;11.052;2023-04-24T03:34:15;2.10;;;1.80;;
14272;SDS011;7220;49.450;11.052;2023-04-24T03:38:15;3.00;;;2.00;;
14272;SDS011;7220;49.450;11.052;2023-04-24T03:42:16;2.17;;;1.93;;
14272;SDS011;7220;49.450;11.052;2023-04-24T03:46:16;3.63;;;1.90;;
14272;SDS011;7220;49.450;11.052;2023-04-24T03:50:16;3.33;;;2.28;;
14272;SDS011;7220;49.450;11.052;2023-04-24T03:54:17;2.45;;;2.13;;
14272;SDS011;7220;49.450;11.052;2023-04-24T03:58:17;2.65;;;1.98;;
14272;SDS011;7220;49.450;11.052;2023-04-24T04:02:17;2.28;;;1.90;;
14272;SDS011;7220;49.450;11.052;2023-04-24T04:06:18;3.13;;;2.23;;
14272;SDS011;7220;49.450;11.052;2023-04-24T04:10:19;2.40;;;1.90;;
14272;SDS011;7220;49.450;11.052;2023-04-24T04:14:19;2.28;;;2.08;;
14272;SDS011;7220;49.450;11.052;2023-04-24T04:18:20;2.20;;;2.00;;
14272;SDS011;7220;49.450;11.052;2023-04-24T04:22:20;2.80;;;2.28;;
14272;SDS011;7220;49.450;11.052;2023-04-24T04:26:20;2.08;;;1.90;;
14272;SDS011;7220;49.450;11.052;2023-04-24T04:30:21;2.38;;;2.17;;
14272;SDS011;7220;49.450;11.052;2023-04-24T04:34:21;4.35;;;2.30;;
14272;SDS011;7220;49.450;11.052;2023-04-24T04:38:22;2.38;;;2.20;;
14272;SDS011;7220;49.450;11.052;2023-04-24T04:42:23;2.85;;;2.42;;
14272;SDS011;7220;49.450;11.052;2023-04-24T04:46:24;4.43;;;2.42;;
14272;SDS011;7220;49.450;11.052;2023-04-24T04:50:26;3.35;;;3.00;;
14272;SDS011;7220;49.450;11.052;2023-04-24T04:54:26;5.35;;;2.88;;
14272;SDS011;7220;49.450;11.052;2023-04-24T04:58:27;3.30;;;2.90;;
14272;SDS011;7220;49.450;11.052;2023-04-24T05:02:27;6.55;;;2.78;;
14272;SDS011;7220;49.450;11.052;2023-04-24T05:06:28;4.93;;;2.83;;
14272;SDS011;7220;49.450;11.052;2023-04-24T05:10:28;3.95;;;2.78;;
14272;SDS011;7220;49.450;11.052;2023-04-24T05:14:28;3.45;;;2.75;;
14272;SDS011;7220;49.450;11.052;2023-04-24T05:18:28;4.50;;;2.63;;
14272;SDS011;7220;49.450;11.052;2023-04-24T05:22:29;3.47;;;3.10;;
14272;SDS011;7220;49.450;11.052;2023-04-24T05:26:30;4.57;;;2.78;;
14272;SDS011;7220;49.450;11.052;2023-04-24T05:30:30;4.50;;;2.60;;
14272;SDS011;7220;49.450;11.052;2023-04-24T05:34:30;3.38;;;2.92;;
14272;SDS011;7220;49.450;11.052;2023-04-24T05:38:31;4.32;;;2.65;;
14272;SDS011;7220;49.450;11.052;2023-04-24T05:42:31;5.53;;;3.00;;
14272;SDS011;7220;49.450;11.052;2023-04-24T05:46:32;4.00;;;2.67;;
14272;SDS011;7220;49.450;11.052;2023-04-24T05:50:32;3.30;;;3.00;;
14272;SDS011;7220;49.450;11.052;2023-04-24T05:54:32;4.18;;;2.95;;
14272;SDS011;7220;49.450;11.052;2023-04-24T05:58:33;3.90;;;2.90;;
14272;SDS011;7220;49.450;11.052;2023-04-24T06:02:33;4.90;;;2.63;;
14272;SDS011;7220;49.450;11.052;2023-04-24T06:06:34;2.97;;;2.67;;
14272;SDS011;7220;49.450;11.052;2023-04-24T06:10:35;3.15;;;2.70;;
14272;SDS011;7220;49.450;11.052;2023-04-24T06:14:35;4.35;;;2.60;;
14272;SDS011;7220;49.450;11.052;2023-04-24T06:18:35;3.70;;;3.40;;
14272;SDS011;7220;49.450;11.052;2023-04-24T06:22:36;2.95;;;2.70;;
14272;SDS011;7220;49.450;11.052;2023-04-24T06:26:36;5.50;;;2.72;;
14272;SDS011;7220;49.450;11.052;2023-04-24T06:30:36;3.15;;;2.85;;
14272;SDS011;7220;49.450;11.052;2023-04-24T06:34:37;3.95;;;2.50;;
14272;SDS011;7220;49.450;11.052;2023-04-24T06:38:37;4.18;;;1.88;;
14272;SDS011;7220;49.450;11.052;2023-04-24T06:42:37;7.75;;;2.30;;
14272;SDS011;7220;49.450;11.052;2023-04-24T06:46:38;4.15;;;2.15;;
14272;SDS011;7220;49.450;11.052;2023-04-24T06:50:38;2.53;;;2.00;;
14272;SDS011;7220;49.450;11.052;2023-04-24T06:54:39;3.85;;;1.98;;
14272;SDS011;7220;49.450;11.052;2023-04-24T06:58:42;4.47;;;1.85;;
14272;SDS011;7220;49.450;11.052;2023-04-24T07:02:43;3.95;;;1.58;;
14272;SDS011;7220;49.450;11.052;2023-04-24T07:06:44;2.20;;;1.30;;
14272;SDS011;7220;49.450;11.052;2023-04-24T07:10:45;5.18;;;1.65;;
14272;SDS011;7220;49.450;11.052;2023-04-24T07:14:46;1.60;;;1.50;;
14272;SDS011;7220;49.450;11.052;2023-04-24T07:18:46;4.05;;;1.90;;
14272;SDS011;7220;49.450;11.052;2023-04-24T07:22:47;3.90;;;1.70;;
14272;SDS011;7220;49.450;11.052;2023-04-24T07:26:49;1.60;;;1.50;;
14272;SDS011;7220;49.450;11.052;2023-04-24T07:30:51;3.92;;;2.00;;
14272;SDS011;7220;49.450;11.052;2023-04-24T07:34:53;2.80;;;1.58;;
14272;SDS011;7220;49.450;11.052;2023-04-24T07:38:54;1.73;;;1.52;;
14272;SDS011;7220;49.450;11.052;2023-04-24T07:42:55;3.40;;;1.65;;
14272;SDS011;7220;49.450;11.052;2023-04-24T07:46:55;2.15;;;1.92;;
14272;SDS011;7220;49.450;11.052;2023-04-24T07:50:56;2.67;;;1.65;;
14272;SDS011;7220;49.450;11.052;2023-04-24T07:54:57;3.67;;;2.17;;
14272;SDS011;7220;49.450;11.052;2023-04-24T07:58:58;2.38;;;2.17;;
14272;SDS011;7220;49.450;11.052;2023-04-24T08:02:59;1.98;;;1.85;;
14272;SDS011;7220;49.450;11.052;2023-04-24T08:06:59;3.30;;;2.28;;
14272;SDS011;7220;49.450;11.052;2023-04-24T08:10:59;2.05;;;1.88;;
14272;SDS011;7220;49.450;11.052;2023-04-24T08:15:00;2.60;;;1.97;;
14272;SDS011;7220;49.450;11.052;2023-04-24T08:19:00;3.25;;;2.35;;
14272;SDS011;7220;49.450;11.052;2023-04-24T08:23:00;4.57;;;2.63;;
14272;SDS011;7220;49.450;11.052;2023-04-24T08:27:01;4.90;;;2.67;;
14272;SDS011;7220;49.450;11.052;2023-04-24T08:31:01;3.90;;;2.50;;
14272;SDS011;7220;49.450;11.052;2023-04-24T08:35:01;5.43;;;3.30;;
14272;SDS011;7220;49.450;11.052;2023-04-24T08:39:02;3.10;;;2.80;;
14272;SDS011;7220;49.450;11.052;2023-04-24T08:43:02;3.97;;;3.08;;
14272;SDS011;7220;49.450;11.052;2023-04-24T08:47:03;3.75;;;3.08;;
14272;SDS011;7220;49.450;11.052;2023-04-24T08:51:04;4.05;;;3.00;;
14272;SDS011;7220;49.450;11.052;2023-04-24T08:55:07;3.08;;;2.70;;
14272;SDS011;7220;49.450;11.052;2023-04-24T08:59:08;3.20;;;2.58;;
14272;SDS011;7220;49.450;11.052;2023-04-24T09:03:09;3.28;;;2.60;;
14272;SDS011;7220;49.450;11.052;2023-04-24T09:07:10;2.92;;;2.63;;
14272;SDS011;7220;49.450;11.052;2023-04-24T09:11:12;6.05;;;2.58;;
14272;SDS011;7220;49.450;11.052;2023-04-24T09:15:12;3.47;;;2.53;;
14272;SDS011;7220;49.450;11.052;2023-04-24T09:19:13;3.47;;;2.60;;
14272;SDS011;7220;49.450;11.052;2023-04-24T09:23:17;2.83;;;2.58;;
14272;SDS011;7220;49.450;11.052;2023-04-24T09:27:17;2.88;;;2.50;;
14272;SDS011;7220;49.450;11.052;2023-04-24T09:31:19;3.40;;;2.15;;
14272;SDS011;7220;49.450;11.052;2023-04-24T09:35:24;3.22;;;2.20;;
14272;SDS011;7220;49.450;11.052;2023-04-24T09:39:25;2.30;;;2.10;;
14272;SDS011;7220;49.450;11.052;2023-04-24T09:43:26;2.58;;;2.30;;
14272;SDS011;7220;49.450;11.052;2023-04-24T09:47:26;3.70;;;2.05;;
14272;SDS011;7220;49.450;11.052;2023-04-24T09:51:34;2.23;;;1.80;;
14272;SDS011;7220;49.450;11.052;2023-04-24T09:55:45;1.65;;;1.55;;
14272;SDS011;7220;49.450;11.052;2023-04-24T09:59:46;3.53;;;1.95;;
14272;SDS011;7220;49.450;11.052;2023-04-24T10:03:49;1.95;;;1.83;;
14272;SDS011;7220;49.450;11.052;2023-04-24T10:07:49;2.00;;;1.90;;
14272;SDS011;7220;49.450;11.052;2023-04-24T10:11:51;1.67;;;1.58;;
14272;SDS011;7220;49.450;11.052;2023-04-24T10:15:53;1.73;;;1.30;;
14272;SDS011;7220;49.450;11.052;2023-04-24T10:19:56;2.67;;;1.85;;
14272;SDS011;7220;49.450;11.052;2023-04-24T10:23:57;2.67;;;1.50;;
14272;SDS011;7220;49.450;11.052;2023-04-24T10:28:00;2.85;;;1.38;;
14272;SDS011;7220;49.450;11.052;2023-04-24T10:32:02;1.42;;;1.33;;
14272;SDS011;7220;49.450;11.052;2023-04-24T10:36:03;1.27;;;1.17;;
14272;SDS011;7220;49.450;11.052;2023-04-24T10:40:04;2.40;;;1.40;;
14272;SDS011;7220;49.450;11.052;2023-04-24T10:44:08;3.17;;;1.58;;
14272;SDS011;7220;49.450;11.052;2023-04-24T10:48:09;4.18;;;1.80;;
14272;SDS011;7220;49.450;11.052;2023-04-24T10:52:16;2.50;;;1.63;;
14272;SDS011;7220;49.450;11.052;2023-04-24T10:56:17;1.45;;;1.35;;
14272;SDS011;7220;49.450;11.052;2023-04-24T11:00:19;1.50;;;1.40;;
14272;SDS011;7220;49.450;11.052;2023-04-24T11:04:30;1.40;;;1.25;;
14272;SDS011;7220;49.450;11.052;2023-04-24T11:12:42;2.88;;;1.58;;
14272;SDS011;7220;49.450;11.052;2023-04-24T11:16:44;1.35;;;1.25;;
14272;SDS011;7220;49.450;11.052;2023-04-24T11:20:51;1.70;;;1.60;;
14272;SDS011;7220;49.450;11.052;2023-04-24T11:24:54;1.80;;;1.63;;
14272;SDS011;7220;49.450;11.052;2023-04-24T11:28:55;4.03;;;2.03;;
14272;SDS011;7220;49.450;11.052;2023-04-24T11:33:06;2.03;;;1.60;;
14272;SDS011;7220;49.450;11.052;2023-04-24T11:37:07;2.13;;;1.90;;
14272;SDS011;7220;49.450;11.052;2023-04-24T11:41:07;2.03;;;1.80;;
14272;SDS011;7220;49.450;11.052;2023-04-24T11:45:09;4.40;;;2.17;;
14272;SDS011;7220;49.450;11.052;2023-04-24T11:49:13;2.28;;;2.08;;
14272;SDS011;7220;49.450;11.052;2023-04-24T11:53:13;2.77;;;1.80;;
14272;SDS011;7220;49.450;11.052;2023-04-24T11:57:14;2.63;;;1.80;;
14272;SDS011;7220;49.450;11.052;2023-04-24T12:01:14;2.95;;;1.63;;
14272;SDS011;7220;49.450;11.052;2023-04-24T12:05:27;2.25;;;2.00;;
14272;SDS011;7220;49.450;11.052;2023-04-24T12:09:28;2.28;;;1.90;;
14272;SDS011;7220;49.450;11.052;2023-04-24T12:13:28;2.40;;;2.20;;
14272;SDS011;7220;49.450;11.052;2023-04-24T12:17:30;2.10;;;1.90;;
14272;SDS011;7220;49.450;11.052;2023-04-24T12:21:31;2.30;;;2.10;;
14272;SDS011;7220;49.450;11.052;2023-04-24T12:25:32;2.95;;;1.90;;
14272;SDS011;7220;49.450;11.052;2023-04-24T12:29:33;2.22;;;2.00;;
14272;SDS011;7220;49.450;11.052;2023-04-24T12:33:34;2.17;;;1.97;;
14272;SDS011;7220;49.450;11.052;2023-04-24T12:37:35;6.20;;;1.77;;
14272;SDS011;7220;49.450;11.052;2023-04-24T12:41:36;1.85;;;1.75;;
14272;SDS011;7220;49.450;11.052;2023-04-24T12:45:36;2.70;;;1.48;;
14272;SDS011;7220;49.450;11.052;2023-04-24T12:49:37;5.00;;;1.90;;
14272;SDS011;7220;49.450;11.052;2023-04-24T12:53:37;3.47;;;1.83;;
14272;SDS011;7220;49.450;11.052;2023-04-24T12:57:38;2.23;;;1.57;;
14272;SDS011;7220;49.450;11.052;2023-04-24T13:05:41;1.98;;;1.75;;
14272;SDS011;7220;49.450;11.052;2023-04-24T13:09:43;3.53;;;2.00;;
14272;SDS011;7220;49.450;11.052;2023-04-24T13:13:44;1.90;;;1.67;;
14272;SDS011;7220;49.450;11.052;2023-04-24T13:17:44;2.15;;;1.73;;
14272;SDS011;7220;49.450;11.052;2023-04-24T13:21:45;2.20;;;2.00;;
14272;SDS011;7220;49.450;11.052;2023-04-24T13:25:45;2.45;;;2.17;;
14272;SDS011;7220;49.450;11.052;2023-04-24T13:29:47;2.83;;;2.00;;
14272;SDS011;7220;49.450;11.052;2023-04-24T13:33:47;1.85;;;1.75;;
14272;SDS011;7220;49.450;11.052;2023-04-24T13:37:48;3.08;;;2.20;;
14272;SDS011;7220;49.450;11.052;2023-04-24T13:41:48;2.23;;;1.80;;
14272;SDS011;7220;49.450;11.052;2023-04-24T13:45:49;2.35;;;2.15;;
14272;SDS011;7220;49.450;11.052;2023-04-24T13:49:49;2.33;;;2.08;;
14272;SDS011;7220;49.450;11.052;2023-04-24T13:53:49;2.70;;;2.50;;
14272;SDS011;7220;49.450;11.052;2023-04-24T13:57:50;2.80;;;2.60;;
14272;SDS011;7220;49.450;11.052;2023-04-24T14:01:52;7.03;;;2.83;;
14272;SDS011;7220;49.450;11.052;2023-04-24T14:05:52;3.25;;;2.50;;
14272;SDS011;7220;49.450;11.052;2023-04-24T14:09:52;3.87;;;2.43;;
14272;SDS011;7220;49.450;11.052;2023-04-24T14:13:53;2.80;;;2.03;;
14272;SDS011;7220;49.450;11.052;2023-04-24T14:17:56;4.30;;;2.50;;
14272;SDS011;7220;49.450;11.052;2023-04-24T14:21:56;4.03;;;2.35;;
14272;SDS011;7220;49.450;11.052;2023-04-24T14:25:58;3.80;;;2.60;;
14272;SDS011;7220;49.450;11.052;2023-04-24T14:29:59;2.97;;;2.45;;
14272;SDS011;7220;49.450;11.052;2023-04-24T14:33:59;2.65;;;2.30;;
14272;SDS011;7220;49.450;11.052;2023-04-24T14:38:00;2.20;;;2.00;;
14272;SDS011;7220;49.450;11.052;2023-04-24T14:42:00;2.45;;;2.25;;
14272;SDS011;7220;49.450;11.052;2023-04-24T14:46:03;2.85;;;2.10;;
14272;SDS011;7220;49.450;11.052;2023-04-24T14:50:05;2.15;;;1.70;;
14272;SDS011;7220;49.450;11.052;2023-04-24T14:54:06;2.47;;;2.28;;
14272;SDS011;7220;49.450;11.052;2023-04-24T14:58:06;2.00;;;1.85;;
14272;SDS011;7220;49.450;11.052;2023-04-24T15:02:06;1.70;;;1.60;;
14272;SDS011;7220;49.450;11.052;2023-04-24T15:06:07;2.45;;;1.60;;
14272;SDS011;7220;49.450;11.052;2023-04-24T15:10:07;2.08;;;1.92;;
14272;SDS011;7220;49.450;11.052;2023-04-24T15:14:08;4.50;;;2.10;;
14272;SDS011;7220;49.450;11.052;2023-04-24T15:18:09;2.65;;;2.45;;
14272;SDS011;7220;49.450;11.052;2023-04-24T15:22:11;2.88;;;2.67;;
14272;SDS011;7220;49.450;11.052;2023-04-24T15:26:11;3.25;;;2.85;;
14272;SDS011;7220;49.450;11.052;2023-04-24T15:30:12;3.78;;;3.10;;
14272;SDS011;7220;49.450;11.052;2023-04-24T15:34:13;3.33;;;3.03;;
14272;SDS011;7220;49.450;11.052;2023-04-24T15:38:14;3.85;;;3.22;;
14272;SDS011;7220;49.450;11.052;2023-04-24T15:42:14;3.65;;;3.35;;
14272;SDS011;7220;49.450;11.052;2023-04-24T15:46:14;5.13;;;3.50;;
14272;SDS011;7220;49.450;11.052;2023-04-24T15:50:15;3.63;;;2.92;;
14272;SDS011;7220;49.450;11.052;2023-04-24T15:54:16;2.60;;;2.40;;
14272;SDS011;7220;49.450;11.052;2023-04-24T15:58:16;2.95;;;2.72;;
14272;SDS011;7220;49.450;11.052;2023-04-24T16:02:17;4.90;;;2.90;;
14272;SDS011;7220;49.450;11.052;2023-04-24T16:06:19;3.42;;;2.60;;
14272;SDS011;7220;49.450;11.052;2023-04-24T16:10:19;2.78;;;2.50;;
14272;SDS011;7220;49.450;11.052;2023-04-24T16:14:20;3.47;;;2.63;;
14272;SDS011;7220;49.450;11.052;2023-04-24T16:18:20;3.25;;;2.95;;
14272;SDS011;7220;49.450;11.052;2023-04-24T16:22:21;4.10;;;3.10;;
14272;SDS011;7220;49.450;11.052;2023-04-24T16:26:21;3.25;;;2.92;;
14272;SDS011;7220;49.450;11.052;2023-04-24T16:30:22;3.20;;;2.97;;
14272;SDS011;7220;49.450;11.052;2023-04-24T16:34:22;3.28;;;2.90;;
14272;SDS011;7220;49.450;11.052;2023-04-24T16:38:22;3.38;;;3.10;;
14272;SDS011;7220;49.450;11.052;2023-04-24T16:42:24;3.78;;;3.47;;
14272;SDS011;7220;49.450;11.052;2023-04-24T16:46:24;3.58;;;3.25;;
14272;SDS011;7220;49.450;11.052;2023-04-24T16:50:25;5.15;;;4.32;;
14272;SDS011;7220;49.450;11.052;2023-04-24T16:54:25;3.30;;;3.00;;
14272;SDS011;7220;49.450;11.052;2023-04-24T16:58:26;3.90;;;3.13;;
14272;SDS011;7220;49.450;11.052;2023-04-24T17:02:26;4.03;;;3.13;;
14272;SDS011;7220;49.450;11.052;2023-04-24T17:06:26;4.25;;;3.30;;
14272;SDS011;7220;49.450;11.052;2023-04-24T17:10:27;4.15;;;3.17;;
14272;SDS011;7220;49.450;11.052;2023-04-24T17:14:28;4.75;;;3.25;;
14272;SDS011;7220;49.450;11.052;2023-04-24T17:18:28;4.03;;;3.60;;
14272;SDS011;7220;49.450;11.052;2023-04-24T17:22:29;4.00;;;3.60;;
14272;SDS011;7220;49.450;11.052;2023-04-24T17:26:30;4.57;;;3.63;;
14272;SDS011;7220;49.450;11.052;2023-04-24T17:30:31;4.13;;;3.72;;
14272;SDS011;7220;49.450;11.052;2023-04-24T17:34:31;3.70;;;3.40;;
14272;SDS011;7220;49.450;11.052;2023-04-24T17:38:31;4.28;;;3.80;;
14272;SDS011;7220;49.450;11.052;2023-04-24T17:42:32;3.35;;;3.05;;
14272;SDS011;7220;49.450;11.052;2023-04-24T17:46:34;3.30;;;2.92;;
14272;SDS011;7220;49.450;11.052;2023-04-24T17:50:34;4.97;;;2.50;;
